Search for airport 
image banner adimage banner adimage banner ad
image banner ad

13CL - Maine Prairie

Located in Dixon, United States

ICAO - 13CL, IATA -

Data provided by Airmate  

General information

Coordinates: N38°22'53" W121°49'25"
Elevation is 40 feet MSL.
Magnetic variation is 16° East
View others Airports in California

Operational data

Special qualification required
Current time UTC:
Current local time:
Weather at : KVCB - Nut Tree ( 12 km )
METAR: KVCB 221353Z AUTO 22009KT 10SM CLR 17/12 A2988 RMK AO2 SLP115 T01720117
View NOTAMs / SUP AIP / TFR affecting this airport [VIEW]
Communications frequencies: [VIEW]

Runways:

RWY identifierQFULength (ft)Width (ft)SurfaceLDA (ft)
16195050GRAVEL
34195050GRAVEL

Airport contact information

Address: Dixon United States

Satellite view of 13CL